createdAt,value
2022-08-07T00:00:23.519Z,6.07
2022-08-07T00:02:36.883Z,6.35
2022-08-07T00:03:52.844Z,6.30
2022-08-07T00:05:29.353Z,6.20
2022-08-07T00:07:05.224Z,5.90
2022-08-07T00:08:44.436Z,5.88
2022-08-07T00:10:25.912Z,6.70
2022-08-07T00:12:00.704Z,6.65
2022-08-07T00:13:34.109Z,5.43
2022-08-07T00:15:13.884Z,5.85
2022-08-07T00:16:48.320Z,5.90
2022-08-07T00:18:24.472Z,7.25
2022-08-07T00:20:03.198Z,7.45
2022-08-07T00:21:55.970Z,7.07
2022-08-07T00:23:31.377Z,6.18
2022-08-07T00:25:07.355Z,5.40
2022-08-07T00:27:06.275Z,5.50
2022-08-07T00:28:41.815Z,6.03
2022-08-07T00:30:26.381Z,5.32
2022-08-07T00:32:01.959Z,5.70
2022-08-07T00:33:36.126Z,5.97
2022-08-07T00:35:11.026Z,5.72
2022-08-07T00:36:50.195Z,5.20
2022-08-07T00:38:31.093Z,5.63
2022-08-07T00:40:06.317Z,5.35
2022-08-07T00:41:53.847Z,6.07
2022-08-07T00:44:01.889Z,5.68
2022-08-07T00:45:29.280Z,6.25
2022-08-07T00:47:06.549Z,6.55
2022-08-07T00:48:51.727Z,5.47
2022-08-07T00:50:46.096Z,5.68
2022-08-07T00:52:20.229Z,6.03
2022-08-07T00:53:55.213Z,5.75
2022-08-07T00:56:00.829Z,5.38
2022-08-07T00:57:25.778Z,6.18
2022-08-07T00:59:00.220Z,5.70
2022-08-07T01:00:33.637Z,6.05
2022-08-07T01:02:13.947Z,5.68
2022-08-07T01:03:56.693Z,7.05
2022-08-07T01:05:36.539Z,7.05
2022-08-07T01:07:11.854Z,6.05
2022-08-07T01:08:52.948Z,6.13
2022-08-07T01:10:27.750Z,5.75
2022-08-07T01:12:23.837Z,6.20
2022-08-07T01:13:55.925Z,6.38
2022-08-07T01:15:35.846Z,6.50
2022-08-07T01:17:23.970Z,6.55
2022-08-07T01:18:58.428Z,5.82
2022-08-07T01:20:43.430Z,6.15
2022-08-07T01:22:22.909Z,6.55
2022-08-07T01:24:03.683Z,5.80
2022-08-07T01:25:54.893Z,6.03
2022-08-07T01:27:32.419Z,6.28
2022-08-07T01:29:07.711Z,6.43
2022-08-07T01:30:43.196Z,5.75
2022-08-07T01:32:19.757Z,6.53
2022-08-07T01:33:57.781Z,6.25
2022-08-07T01:35:37.009Z,6.18
2022-08-07T01:37:33.808Z,6.05
2022-08-07T01:39:10.223Z,6.28
2022-08-07T01:40:49.183Z,6.53
2022-08-07T01:42:39.338Z,6.18
2022-08-07T01:44:21.086Z,5.68
2022-08-07T01:45:58.718Z,6.93
2022-08-07T01:48:19.182Z,6.60
2022-08-07T01:49:28.251Z,6.43
2022-08-07T01:52:01.341Z,6.32
2022-08-07T01:53:08.816Z,8.23
2022-08-07T01:54:47.993Z,7.35
2022-08-07T01:56:29.080Z,7.13
2022-08-07T01:58:27.359Z,7.75
2022-08-07T02:00:12.892Z,7.70
2022-08-07T02:02:01.655Z,8.13
2022-08-07T02:03:50.867Z,7.13
2022-08-07T02:05:42.933Z,6.70
2022-08-07T02:07:44.997Z,6.57
2022-08-07T02:09:53.299Z,6.28
2022-08-07T02:11:30.922Z,7.03
2022-08-07T02:13:13.575Z,6.40
2022-08-07T02:15:00.651Z,6.10
2022-08-07T02:16:40.976Z,6.53
2022-08-07T02:18:17.767Z,6.88
2022-08-07T02:20:04.819Z,6.35
2022-08-07T02:21:56.256Z,6.25
2022-08-07T02:23:35.959Z,7.18
2022-08-07T02:25:13.951Z,6.25
2022-08-07T02:27:02.847Z,6.80
2022-08-07T02:28:40.177Z,6.80
2022-08-07T02:30:15.161Z,6.20
2022-08-07T02:31:49.707Z,6.90
2022-08-07T02:33:32.815Z,6.38
2022-08-07T02:35:20.238Z,6.88
2022-08-07T02:36:58.037Z,6.90
2022-08-07T02:38:36.933Z,6.53
2022-08-07T02:40:31.093Z,6.68
2022-08-07T02:42:10.166Z,6.85
2022-08-07T02:43:51.535Z,7.55
2022-08-07T02:45:58.769Z,8.13
2022-08-07T02:47:23.987Z,8.10
2022-08-07T02:49:08.687Z,7.57
2022-08-07T02:51:07.213Z,7.53
2022-08-07T02:53:06.402Z,7.22
2022-08-07T02:54:43.383Z,7.47
2022-08-07T02:56:21.756Z,7.07
2022-08-07T02:57:59.939Z,6.75
2022-08-07T02:59:34.507Z,6.45
2022-08-07T03:01:18.809Z,6.43
2022-08-07T03:03:13.437Z,6.40
2022-08-07T03:04:54.153Z,7.05
2022-08-07T03:06:33.330Z,6.70
2022-08-07T03:08:10.711Z,7.05
2022-08-07T03:09:52.640Z,6.85
2022-08-07T03:11:28.549Z,6.82
2022-08-07T03:13:07.777Z,6.82
2022-08-07T03:14:43.372Z,6.78
2022-08-07T03:16:27.775Z,6.97
2022-08-07T03:18:04.039Z,7.32
2022-08-07T03:19:37.435Z,6.40
2022-08-07T03:21:14.428Z,6.93
2022-08-07T03:22:55.156Z,7.00
2022-08-07T03:24:29.011Z,7.40
2022-08-07T03:26:08.146Z,7.43
2022-08-07T03:27:59.712Z,7.32
2022-08-07T03:29:49.549Z,7.15
2022-08-07T03:31:42.688Z,7.28
2022-08-07T03:33:20.356Z,6.28
2022-08-07T03:35:16.997Z,7.18
2022-08-07T03:36:53.692Z,6.90
2022-08-07T03:38:29.919Z,7.35
2022-08-07T03:40:15.542Z,6.80
2022-08-07T03:41:50.910Z,7.25
2022-08-07T03:43:32.292Z,7.55
2022-08-07T03:45:09.454Z,7.03
2022-08-07T03:47:13.123Z,7.22
2022-08-07T03:49:02.243Z,6.93
2022-08-07T03:50:32.191Z,6.90
2022-08-07T03:52:15.947Z,7.18
2022-08-07T03:54:33.470Z,8.45
2022-08-07T03:55:57.680Z,7.70
2022-08-07T03:58:32.613Z,8.27
2022-08-07T03:59:46.729Z,8.80
2022-08-07T04:01:45.202Z,8.13
2022-08-07T04:03:19.323Z,7.90
2022-08-07T04:04:57.166Z,7.15
2022-08-07T04:06:37.722Z,7.05
2022-08-07T04:08:18.403Z,7.53
2022-08-07T04:09:54.269Z,6.85
2022-08-07T04:12:23.874Z,6.72
2022-08-07T04:13:27.749Z,7.03
2022-08-07T04:15:04.966Z,6.45
2022-08-07T04:16:43.041Z,6.82
2022-08-07T04:19:01.321Z,6.80
2022-08-07T04:20:25.772Z,6.78
2022-08-07T04:22:07.833Z,6.70
2022-08-07T04:24:07.094Z,6.53
2022-08-07T04:25:43.185Z,7.05
2022-08-07T04:27:25.257Z,7.45
2022-08-07T04:29:12.191Z,8.68
2022-08-07T04:30:57.032Z,8.30
2022-08-07T04:32:36.081Z,7.43
2022-08-07T04:34:16.602Z,7.95
2022-08-07T04:35:53.943Z,7.30
2022-08-07T04:38:01.160Z,8.13
2022-08-07T04:39:35.645Z,7.43
2022-08-07T04:41:18.224Z,7.38
2022-08-07T04:42:53.752Z,7.40
2022-08-07T04:44:36.532Z,7.10
2022-08-07T04:46:51.313Z,8.07
2022-08-07T04:48:44.755Z,7.57
2022-08-07T04:50:32.157Z,6.68
2022-08-07T04:52:29.389Z,8.00
2022-08-07T04:54:15.676Z,7.55
2022-08-07T04:58:10.347Z,6.75
2022-08-07T04:58:11.699Z,7.55
2022-08-07T05:00:11.431Z,7.05
2022-08-07T05:01:58.234Z,7.40
2022-08-07T05:03:59.677Z,7.60
2022-08-07T05:05:51.877Z,6.63
2022-08-07T05:07:37.091Z,7.18
2022-08-07T05:09:43.014Z,6.53
2022-08-07T05:11:26.315Z,6.22
2022-08-07T05:14:55.448Z,5.90
2022-08-07T05:15:28.012Z,7.45
2022-08-07T05:17:11.970Z,7.03
2022-08-07T05:18:50.045Z,7.22
2022-08-07T05:20:28.236Z,6.75
2022-08-07T05:22:10.649Z,7.20
2022-08-07T05:23:50.455Z,6.18
2022-08-07T05:25:26.114Z,6.70
2022-08-07T05:28:02.040Z,6.13
2022-08-07T05:29:17.097Z,6.18
2022-08-07T05:30:52.296Z,6.28
2022-08-07T05:32:28.198Z,7.00
2022-08-07T05:34:05.704Z,6.55
2022-08-07T05:35:47.864Z,6.75
2022-08-07T05:37:25.332Z,6.18
2022-08-07T05:40:13.942Z,6.00
2022-08-07T05:41:14.234Z,5.80
2022-08-07T05:42:55.786Z,6.32
2022-08-07T05:44:34.927Z,5.78
2022-08-07T05:46:09.996Z,6.07
2022-08-07T05:48:01.218Z,6.03
2022-08-07T05:49:41.677Z,6.40
2022-08-07T05:51:17.582Z,5.95
2022-08-07T05:52:54.640Z,6.15
2022-08-07T05:54:31.289Z,6.68
2022-08-07T05:56:29.912Z,5.75
2022-08-07T05:58:07.272Z,5.50
2022-08-07T05:59:56.182Z,5.93
2022-08-07T06:01:36.192Z,5.82
2022-08-07T06:03:13.612Z,6.28
2022-08-07T06:04:54.632Z,5.97
2022-08-07T06:06:29.849Z,5.55
2022-08-07T06:08:29.631Z,5.07
2022-08-07T06:10:06.191Z,5.22
2022-08-07T06:11:45.446Z,5.43
2022-08-07T06:14:10.583Z,5.57
2022-08-07T06:15:19.901Z,4.95
2022-08-07T06:16:56.200Z,5.65
2022-08-07T06:18:37.829Z,5.40
2022-08-07T06:20:25.745Z,5.68
2022-08-07T06:22:15.370Z,5.68
2022-08-07T06:24:37.792Z,6.25
2022-08-07T06:25:57.235Z,5.53
2022-08-07T06:28:00.007Z,5.32
2022-08-07T06:29:28.793Z,5.70
2022-08-07T06:31:03.753Z,5.78
2022-08-07T06:32:38.838Z,5.55
2022-08-07T06:34:14.052Z,5.55
2022-08-07T06:36:06.852Z,5.28
2022-08-07T06:37:46.558Z,5.70
2022-08-07T06:40:15.684Z,5.53
2022-08-07T06:42:00.621Z,5.15
2022-08-07T06:43:21.442Z,5.85
2022-08-07T06:45:17.981Z,5.28
2022-08-07T06:47:10.141Z,6.25
2022-08-07T06:48:45.572Z,6.43
2022-08-07T06:50:25.996Z,6.13
2022-08-07T06:52:07.478Z,6.15
2022-08-07T06:55:29.248Z,6.50
2022-08-07T06:56:00.451Z,6.30
2022-08-07T06:57:39.825Z,6.55
2022-08-07T07:00:11.917Z,6.30
2022-08-07T07:01:44.036Z,5.78
2022-08-07T07:03:39.444Z,6.20
2022-08-07T07:06:03.730Z,6.00
2022-08-07T07:07:19.182Z,6.20
2022-08-07T07:09:24.271Z,6.63
2022-08-07T07:11:14.017Z,5.97
2022-08-07T07:13:05.004Z,6.43
2022-08-07T07:14:45.509Z,6.05
2022-08-07T07:16:23.504Z,5.70
2022-08-07T07:18:08.752Z,6.20
2022-08-07T07:19:57.030Z,5.95
2022-08-07T07:21:40.472Z,6.22
2022-08-07T07:24:09.390Z,5.57
2022-08-07T07:26:34.428Z,5.80
2022-08-07T07:27:24.867Z,5.97
2022-08-07T07:29:38.464Z,5.75
2022-08-07T07:31:17.243Z,5.60
2022-08-07T07:32:59.150Z,5.05
2022-08-07T07:34:35.933Z,5.68
2022-08-07T07:36:17.318Z,5.95
2022-08-07T07:38:02.600Z,6.38
2022-08-07T07:39:52.462Z,5.50
2022-08-07T07:42:02.120Z,5.55
2022-08-07T07:43:27.645Z,5.43
2022-08-07T07:46:33.374Z,5.65
2022-08-07T07:47:51.945Z,5.32
2022-08-07T07:50:31.306Z,5.60
2022-08-07T07:51:11.833Z,5.13
2022-08-07T07:52:50.647Z,5.80
2022-08-07T07:54:25.627Z,5.50
2022-08-07T07:56:02.403Z,5.53
2022-08-07T07:57:44.013Z,6.43
2022-08-07T07:59:52.449Z,6.15
2022-08-07T08:02:03.150Z,5.80
2022-08-07T08:04:10.991Z,5.78
2022-08-07T08:05:17.901Z,5.80
2022-08-07T08:07:02.601Z,5.70
2022-08-07T08:08:39.291Z,5.97
2022-08-07T08:10:35.558Z,6.00
2022-08-07T08:12:12.123Z,6.13
2022-08-07T08:13:55.149Z,5.93
2022-08-07T08:15:57.476Z,5.70
2022-08-07T08:17:56.372Z,6.13
2022-08-07T08:20:18.119Z,6.10
2022-08-07T08:22:00.584Z,6.05
2022-08-07T08:23:53.594Z,4.93
2022-08-07T08:25:49.223Z,5.78
2022-08-07T08:27:33.482Z,6.65
2022-08-07T08:29:08.544Z,6.10
2022-08-07T08:30:51.050Z,6.40
2022-08-07T08:32:39.498Z,6.57
2022-08-07T08:34:26.627Z,6.22
2022-08-07T08:36:01.715Z,6.10
2022-08-07T08:38:00.993Z,7.13
2022-08-07T08:39:39.597Z,6.35
2022-08-07T08:41:57.556Z,6.00
2022-08-07T08:43:55.858Z,6.20
2022-08-07T08:45:59.399Z,6.68
2022-08-07T08:47:51.945Z,6.18
2022-08-07T08:49:46.555Z,6.63
2022-08-07T08:51:49.527Z,5.97
2022-08-07T08:53:34.978Z,6.90
2022-08-07T08:55:20.832Z,6.65
2022-08-07T08:57:22.345Z,6.55
2022-08-07T08:59:06.312Z,7.45
2022-08-07T09:00:48.693Z,7.07
2022-08-07T09:02:36.727Z,8.50
2022-08-07T09:04:25.664Z,7.05
2022-08-07T09:06:05.490Z,6.90
2022-08-07T09:07:57.843Z,8.20
2022-08-07T09:09:47.657Z,8.52
2022-08-07T09:11:50.751Z,8.73
2022-08-07T09:13:36.795Z,8.30
2022-08-07T09:16:25.687Z,8.27
2022-08-07T09:17:58.956Z,7.72
2022-08-07T09:19:51.920Z,8.25
2022-08-07T09:22:22.887Z,8.52
2022-08-07T09:24:30.992Z,8.05
2022-08-07T09:25:53.472Z,7.55
2022-08-07T09:27:54.529Z,9.23
2022-08-07T09:30:04.092Z,9.15
2022-08-07T09:31:48.518Z,8.40
2022-08-07T09:33:52.652Z,9.57
2022-08-07T09:36:01.068Z,8.30
2022-08-07T09:37:53.755Z,8.52
2022-08-07T09:39:54.598Z,10.88
2022-08-07T09:41:43.245Z,9.68
2022-08-07T09:44:03.092Z,10.20
2022-08-07T09:47:25.812Z,9.60
2022-08-07T09:47:59.930Z,10.02
2022-08-07T09:50:00.450Z,10.07
2022-08-07T09:52:16.614Z,9.13
2022-08-07T09:54:00.607Z,11.30
2022-08-07T09:56:03.862Z,9.90
2022-08-07T09:58:10.315Z,9.68
2022-08-07T10:00:14.805Z,9.15
2022-08-07T10:02:06.193Z,9.18
2022-08-07T10:04:16.020Z,21.65
2022-08-07T10:06:24.350Z,9.27
2022-08-07T10:08:11.940Z,9.85
2022-08-07T10:10:02.616Z,8.68
2022-08-07T10:12:03.336Z,8.93
2022-08-07T10:14:02.156Z,9.40
2022-08-07T10:15:56.134Z,9.55
2022-08-07T10:18:01.001Z,10.18
2022-08-07T10:20:04.857Z,9.60
2022-08-07T10:22:12.366Z,9.68
2022-08-07T10:24:08.438Z,9.18
2022-08-07T10:26:00.574Z,8.88
2022-08-07T10:27:51.458Z,9.23
2022-08-07T10:29:54.099Z,9.20
2022-08-07T10:31:55.034Z,9.32
2022-08-07T10:34:06.629Z,9.30
2022-08-07T10:36:05.629Z,9.43
2022-08-07T10:38:21.723Z,10.52
2022-08-07T10:40:08.961Z,10.35
2022-08-07T10:42:00.308Z,11.00
2022-08-07T10:43:49.672Z,11.05
2022-08-07T10:45:45.033Z,10.40
2022-08-07T10:47:52.592Z,10.05
2022-08-07T10:49:49.425Z,9.95
2022-08-07T10:51:39.583Z,9.50
2022-08-07T10:53:41.989Z,10.05
2022-08-07T10:55:37.064Z,10.02
2022-08-07T10:57:33.952Z,9.55
2022-08-07T10:59:21.229Z,8.88
2022-08-07T11:01:12.388Z,10.15
2022-08-07T11:03:03.263Z,10.18
2022-08-07T11:04:57.605Z,9.57
2022-08-07T11:06:42.237Z,9.93
2022-08-07T11:08:29.252Z,9.43
2022-08-07T11:10:13.313Z,11.10
2022-08-07T11:11:54.804Z,10.63
2022-08-07T11:14:45.761Z,10.15
2022-08-07T11:15:37.091Z,11.52
2022-08-07T11:17:23.174Z,9.40
2022-08-07T11:19:21.733Z,9.15
2022-08-07T11:21:07.567Z,8.70
2022-08-07T11:22:56.938Z,8.50
2022-08-07T11:24:38.978Z,8.88
2022-08-07T11:26:27.891Z,9.48
2022-08-07T11:28:08.165Z,8.82
2022-08-07T11:29:54.120Z,8.88
2022-08-07T11:31:54.891Z,9.15
2022-08-07T11:33:54.331Z,9.05
2022-08-07T11:36:00.451Z,8.55
2022-08-07T11:38:10.192Z,8.40
2022-08-07T11:40:00.113Z,10.73
2022-08-07T11:42:01.714Z,8.50
2022-08-07T11:44:11.485Z,9.55
2022-08-07T11:45:53.685Z,9.27
2022-08-07T11:47:55.913Z,9.43
2022-08-07T11:50:30.530Z,9.23
2022-08-07T11:52:14.681Z,9.27
2022-08-07T11:54:03.140Z,9.07
2022-08-07T11:56:25.235Z,8.60
2022-08-07T11:58:13.262Z,9.25
2022-08-07T12:00:11.472Z,10.13
2022-08-07T12:02:02.115Z,8.85
2022-08-07T12:03:54.693Z,8.93
2022-08-07T12:05:47.223Z,7.60
2022-08-07T12:07:27.260Z,8.88
2022-08-07T12:09:16.126Z,6.20
2022-08-07T12:11:08.342Z,6.07
2022-08-07T12:12:56.255Z,5.40
2022-08-07T12:14:35.959Z,5.25
2022-08-07T12:16:29.877Z,6.82
2022-08-07T12:18:11.211Z,5.80
2022-08-07T12:20:02.602Z,5.30
2022-08-07T12:22:35.802Z,6.15
2022-08-07T12:24:05.632Z,5.70
2022-08-07T12:26:02.822Z,9.73
2022-08-07T12:28:08.516Z,6.85
2022-08-07T12:29:51.691Z,5.57
2022-08-07T12:32:02.236Z,6.47
2022-08-07T12:34:01.298Z,6.47
2022-08-07T12:35:36.286Z,6.35
2022-08-07T12:37:22.914Z,7.30
2022-08-07T12:38:57.985Z,6.35
2022-08-07T12:40:50.835Z,6.93
2022-08-07T12:42:31.846Z,5.97
2022-08-07T12:44:12.897Z,6.03
2022-08-07T12:45:59.076Z,5.88
2022-08-07T12:47:44.276Z,5.70
2022-08-07T12:49:44.682Z,5.38
2022-08-07T12:51:23.415Z,5.72
2022-08-07T12:53:17.628Z,6.32
2022-08-07T12:55:05.643Z,5.70
2022-08-07T12:56:50.963Z,6.53
2022-08-07T12:58:35.131Z,6.10
2022-08-07T13:00:16.432Z,6.43
2022-08-07T13:02:18.631Z,6.03
2022-08-07T13:04:04.639Z,5.80
2022-08-07T13:06:01.914Z,5.50
2022-08-07T13:08:18.851Z,6.20
2022-08-07T13:10:29.378Z,5.68
2022-08-07T13:12:15.133Z,6.10
2022-08-07T13:13:59.512Z,6.30
2022-08-07T13:15:42.958Z,6.03
2022-08-07T13:17:21.869Z,6.03
2022-08-07T13:19:45.906Z,5.35
2022-08-07T13:21:50.317Z,5.75
2022-08-07T13:24:00.978Z,6.13
2022-08-07T13:25:31.879Z,6.18
2022-08-07T13:27:13.343Z,5.65
2022-08-07T13:28:52.446Z,6.28
2022-08-07T13:30:39.895Z,6.03
2022-08-07T13:32:32.581Z,5.55
2022-08-07T13:34:34.442Z,6.22
2022-08-07T13:36:17.397Z,5.82
2022-08-07T13:37:58.971Z,5.82
2022-08-07T13:40:33.418Z,5.72
2022-08-07T13:41:42.365Z,5.40
2022-08-07T13:43:22.111Z,5.57
2022-08-07T13:46:06.683Z,5.60
2022-08-07T13:46:54.769Z,6.28
2022-08-07T13:48:34.333Z,6.75
2022-08-07T13:50:34.004Z,5.45
2022-08-07T13:52:31.485Z,7.70
2022-08-07T13:54:06.395Z,7.20
2022-08-07T13:55:54.285Z,7.10
2022-08-07T13:57:37.592Z,5.90
2022-08-07T13:59:16.400Z,6.57
2022-08-07T14:00:54.272Z,7.93
2022-08-07T14:02:45.772Z,7.28
2022-08-07T14:04:29.965Z,6.28
2022-08-07T14:06:11.551Z,6.85
2022-08-07T14:07:59.343Z,6.75
2022-08-07T14:10:12.128Z,7.88
2022-08-07T14:11:53.767Z,6.93
2022-08-07T14:13:38.983Z,7.03
2022-08-07T14:15:31.877Z,6.85
2022-08-07T14:17:32.223Z,6.85
2022-08-07T14:20:41.229Z,7.30
2022-08-07T14:22:00.640Z,7.78
2022-08-07T14:23:31.351Z,8.57
2022-08-07T14:25:16.991Z,7.75
2022-08-07T14:26:53.735Z,7.97
2022-08-07T14:28:55.769Z,7.95
2022-08-07T14:30:32.999Z,7.82
2022-08-07T14:32:09.480Z,7.65
2022-08-07T14:33:47.652Z,8.07
2022-08-07T14:35:43.002Z,7.75
2022-08-07T14:37:23.720Z,15.50
2022-08-07T14:39:12.472Z,8.23
2022-08-07T14:41:12.399Z,8.23
2022-08-07T14:43:01.008Z,8.38
2022-08-07T14:44:54.136Z,8.30
2022-08-07T14:46:34.073Z,8.50
2022-08-07T14:48:10.668Z,8.90
2022-08-07T14:49:57.338Z,8.43
2022-08-07T14:52:04.865Z,9.82
2022-08-07T14:54:08.704Z,9.82
2022-08-07T14:55:33.503Z,9.68
2022-08-07T14:57:11.021Z,10.32
2022-08-07T14:58:55.313Z,9.55
2022-08-07T15:00:32.758Z,9.68
2022-08-07T15:04:09.011Z,9.00
2022-08-07T15:05:54.768Z,11.20
2022-08-07T15:07:51.188Z,10.23
2022-08-07T15:11:53.172Z,9.65
2022-08-07T15:13:25.496Z,11.15
2022-08-07T15:15:21.165Z,11.00
2022-08-07T15:17:01.157Z,11.05
2022-08-07T15:18:41.600Z,10.23
2022-08-07T15:20:33.865Z,9.13
2022-08-07T15:22:22.176Z,8.65
2022-08-07T15:25:16.169Z,8.77
2022-08-07T15:26:09.199Z,9.85
2022-08-07T15:28:14.106Z,9.15
2022-08-07T15:32:01.904Z,8.90
2022-08-07T15:33:33.982Z,9.73
2022-08-07T15:35:16.880Z,9.80
2022-08-07T15:37:03.371Z,9.23
2022-08-07T15:38:59.335Z,9.02
2022-08-07T15:40:37.038Z,9.68
2022-08-07T15:42:46.181Z,9.57
2022-08-07T15:44:24.086Z,10.05
2022-08-07T15:46:06.893Z,9.63
2022-08-07T15:50:05.931Z,9.98
2022-08-07T15:53:51.639Z,10.55
2022-08-07T15:55:54.016Z,9.65
2022-08-07T15:57:39.794Z,9.20
2022-08-07T15:59:39.523Z,8.85
2022-08-07T16:01:20.267Z,9.35
2022-08-07T16:02:56.969Z,9.25
2022-08-07T16:04:34.393Z,9.50
2022-08-07T16:06:09.660Z,9.32
2022-08-07T16:08:30.353Z,9.88
2022-08-07T16:09:52.170Z,11.40
2022-08-07T16:11:41.490Z,9.93
2022-08-07T16:14:02.833Z,9.35
2022-08-07T16:15:57.444Z,9.43
2022-08-07T16:18:00.890Z,9.38
2022-08-07T16:20:07.321Z,9.80
2022-08-07T16:22:02.387Z,8.68
2022-08-07T16:23:58.548Z,8.77
2022-08-07T16:25:53.997Z,9.20
2022-08-07T16:27:40.417Z,10.00
2022-08-07T16:30:11.001Z,15.70
2022-08-07T16:31:51.005Z,12.73
2022-08-07T16:34:02.520Z,10.32
2022-08-07T16:35:51.858Z,9.82
2022-08-07T16:38:50.380Z,8.95
2022-08-07T16:41:02.104Z,9.52
2022-08-07T16:42:55.813Z,12.63
2022-08-07T16:45:15.121Z,12.48
2022-08-07T16:47:04.433Z,10.15
2022-08-07T16:50:28.507Z,10.45
2022-08-07T16:52:01.232Z,10.38
2022-08-07T16:54:02.102Z,10.32
2022-08-07T16:55:43.789Z,10.23
2022-08-07T16:58:01.648Z,9.98
2022-08-07T16:59:46.845Z,12.23
2022-08-07T17:01:35.343Z,12.05
2022-08-07T17:03:58.056Z,12.32
2022-08-07T17:06:19.849Z,14.25
2022-08-07T17:07:55.248Z,13.02
2022-08-07T17:10:06.284Z,21.25
2022-08-07T17:12:01.442Z,13.35
2022-08-07T17:14:18.277Z,11.60
2022-08-07T17:15:44.459Z,9.63
2022-08-07T17:17:46.020Z,11.70
2022-08-07T17:20:01.780Z,11.43
2022-08-07T17:21:50.799Z,9.35
2022-08-07T17:23:41.587Z,12.05
2022-08-07T17:25:19.991Z,11.02
2022-08-07T17:27:24.127Z,9.40
2022-08-07T17:30:12.734Z,10.60
2022-08-07T17:31:15.593Z,12.38
2022-08-07T17:33:05.532Z,13.88
2022-08-07T17:35:49.640Z,10.05
2022-08-07T17:37:09.111Z,9.57
2022-08-07T17:38:55.341Z,9.75
2022-08-07T17:40:36.376Z,9.63
2022-08-07T17:42:18.067Z,9.55
2022-08-07T17:44:03.029Z,10.00
2022-08-07T17:45:43.370Z,9.48
2022-08-07T17:47:42.092Z,9.38
2022-08-07T17:49:24.038Z,9.63
2022-08-07T17:51:05.600Z,9.38
2022-08-07T17:52:42.053Z,9.05
2022-08-07T17:54:29.593Z,9.57
2022-08-07T17:56:26.120Z,9.48
2022-08-07T17:58:08.347Z,9.40
2022-08-07T17:59:50.641Z,10.07
2022-08-07T18:01:36.249Z,11.10
2022-08-07T18:03:19.390Z,10.38
2022-08-07T18:05:01.429Z,10.02
2022-08-07T18:07:20.397Z,10.88
2022-08-07T18:09:05.706Z,10.80
2022-08-07T18:12:06.953Z,10.13
2022-08-07T18:13:09.856Z,10.18
2022-08-07T18:14:51.055Z,9.80
2022-08-07T18:16:35.024Z,9.65
2022-08-07T18:18:46.130Z,9.68
2022-08-07T18:21:11.946Z,8.88
2022-08-07T18:22:15.218Z,9.68
2022-08-07T18:24:09.200Z,9.30
2022-08-07T18:25:49.448Z,9.25
2022-08-07T18:28:04.575Z,8.82
2022-08-07T18:30:05.802Z,9.65
2022-08-07T18:31:53.630Z,9.68
2022-08-07T18:34:03.117Z,10.10
2022-08-07T18:35:50.320Z,10.52
2022-08-07T18:38:55.036Z,10.38
2022-08-07T18:40:08.524Z,9.60
2022-08-07T18:42:04.890Z,10.07
2022-08-07T18:43:57.657Z,9.65
2022-08-07T18:46:24.552Z,10.25
2022-08-07T18:47:49.483Z,10.05
2022-08-07T18:50:34.974Z,9.88
2022-08-07T18:52:51.787Z,10.10
2022-08-07T18:54:05.142Z,10.40
2022-08-07T18:56:08.380Z,9.98
2022-08-07T18:58:00.724Z,10.18
2022-08-07T18:59:59.410Z,9.75
2022-08-07T19:02:18.305Z,10.00
2022-08-07T19:03:49.489Z,10.38
2022-08-07T19:06:01.591Z,9.52
2022-08-07T19:07:35.451Z,9.90
2022-08-07T19:09:57.454Z,10.15
2022-08-07T19:11:34.791Z,10.35
2022-08-07T19:13:21.880Z,10.98
2022-08-07T19:16:02.404Z,10.95
2022-08-07T19:17:55.634Z,9.82
2022-08-07T19:19:19.873Z,10.00
2022-08-07T19:21:09.047Z,9.73
2022-08-07T19:23:18.266Z,10.18
2022-08-07T19:24:54.597Z,10.55
2022-08-07T19:27:10.303Z,10.20
2022-08-07T19:30:54.166Z,10.00
2022-08-07T19:31:03.117Z,10.68
2022-08-07T19:32:26.484Z,9.70
2022-08-07T19:34:05.609Z,10.18
2022-08-07T19:35:43.526Z,10.25
2022-08-07T19:37:22.253Z,10.52
2022-08-07T19:39:00.504Z,10.20
2022-08-07T19:40:50.086Z,10.68
2022-08-07T19:42:29.500Z,11.23
2022-08-07T19:44:04.826Z,9.98
2022-08-07T19:46:07.192Z,10.55
2022-08-07T19:47:49.191Z,11.02
2022-08-07T19:49:56.502Z,10.60
2022-08-07T19:51:51.056Z,11.15
2022-08-07T19:54:34.645Z,9.80
2022-08-07T19:55:19.688Z,11.18
2022-08-07T19:58:00.841Z,13.38
2022-08-07T19:58:58.221Z,15.30
2022-08-07T20:00:35.772Z,14.90
2022-08-07T20:02:18.955Z,13.25
2022-08-07T20:03:57.134Z,14.98
2022-08-07T20:05:59.959Z,13.02
2022-08-07T20:07:46.364Z,12.13
2022-08-07T20:10:35.307Z,11.10
2022-08-07T20:11:34.089Z,10.68
2022-08-07T20:13:27.304Z,10.95
2022-08-07T20:15:18.946Z,11.00
2022-08-07T20:16:58.139Z,11.27
2022-08-07T20:18:34.548Z,11.30
2022-08-07T20:20:09.755Z,10.93
2022-08-07T20:21:47.181Z,11.27
2022-08-07T20:23:41.599Z,11.57
2022-08-07T20:25:19.720Z,11.13
2022-08-07T20:26:57.307Z,11.13
2022-08-07T20:28:37.036Z,12.40
2022-08-07T20:30:13.592Z,10.95
2022-08-07T20:31:56.570Z,12.40
2022-08-07T20:33:37.539Z,11.85
2022-08-07T20:35:26.044Z,11.35
2022-08-07T20:37:02.144Z,11.90
2022-08-07T20:38:36.990Z,11.60
2022-08-07T20:40:34.538Z,12.27
2022-08-07T20:42:12.866Z,11.60
2022-08-07T20:43:48.485Z,11.52
2022-08-07T20:46:28.667Z,11.40
2022-08-07T20:47:55.562Z,11.30
2022-08-07T20:49:59.987Z,11.18
2022-08-07T20:51:26.006Z,11.57
2022-08-07T20:53:02.256Z,11.45
2022-08-07T20:54:37.955Z,11.55
2022-08-07T20:56:26.016Z,12.50
2022-08-07T20:58:08.874Z,11.32
2022-08-07T21:00:07.201Z,12.35
2022-08-07T21:01:45.687Z,12.27
2022-08-07T21:03:29.335Z,13.85
2022-08-07T21:05:04.488Z,11.52
2022-08-07T21:06:53.397Z,12.00
2022-08-07T21:08:36.573Z,12.00
2022-08-07T21:10:14.933Z,11.82
2022-08-07T21:12:03.678Z,11.38
2022-08-07T21:13:57.665Z,11.32
2022-08-07T21:15:47.595Z,11.70
2022-08-07T21:18:17.399Z,12.43
2022-08-07T21:19:19.936Z,12.10
2022-08-07T21:21:06.508Z,11.23
2022-08-07T21:22:44.993Z,11.93
2022-08-07T21:24:47.919Z,11.07
2022-08-07T21:26:35.396Z,11.77
2022-08-07T21:28:18.876Z,11.38
2022-08-07T21:30:11.202Z,12.10
2022-08-07T21:32:46.660Z,12.18
2022-08-07T21:33:54.796Z,12.55
2022-08-07T21:35:34.639Z,12.73
2022-08-07T21:37:31.438Z,11.68
2022-08-07T21:39:47.399Z,12.88
2022-08-07T21:41:38.184Z,12.15
2022-08-07T21:43:36.701Z,12.68
2022-08-07T21:46:09.549Z,12.07
2022-08-07T21:47:34.574Z,12.07
2022-08-07T21:49:16.538Z,11.63
2022-08-07T21:50:55.279Z,12.88
2022-08-07T21:52:38.111Z,12.75
2022-08-07T21:54:23.419Z,15.73
2022-08-07T21:56:04.172Z,11.93
2022-08-07T21:58:03.248Z,11.93
2022-08-07T22:00:05.363Z,11.93
2022-08-07T22:02:07.056Z,11.85
2022-08-07T22:03:48.946Z,11.93
2022-08-07T22:05:45.984Z,11.70
2022-08-07T22:07:23.094Z,12.48
2022-08-07T22:09:09.010Z,12.38
2022-08-07T22:10:47.334Z,11.95
2022-08-07T22:12:24.674Z,12.38
2022-08-07T22:13:59.813Z,12.65
2022-08-07T22:16:42.549Z,11.73
2022-08-07T22:17:42.761Z,11.60
2022-08-07T22:19:32.329Z,11.50
2022-08-07T22:21:15.766Z,11.65
2022-08-07T22:23:01.754Z,12.52
2022-08-07T22:24:42.231Z,11.88
2022-08-07T22:26:31.173Z,11.45
2022-08-07T22:28:31.124Z,12.45
2022-08-07T22:30:12.363Z,12.70
2022-08-07T22:31:59.970Z,12.40
2022-08-07T22:33:56.711Z,12.70
2022-08-07T22:35:45.039Z,13.35
2022-08-07T22:38:02.953Z,11.23
2022-08-07T22:39:35.319Z,12.90
2022-08-07T22:42:03.343Z,10.73
2022-08-07T22:43:33.919Z,12.07
2022-08-07T22:45:11.081Z,12.23
2022-08-07T22:47:18.395Z,12.05
2022-08-07T22:49:15.907Z,11.95
2022-08-07T22:51:09.387Z,11.07
2022-08-07T22:53:15.367Z,11.98
2022-08-07T22:55:17.052Z,11.95
2022-08-07T22:57:03.478Z,11.65
2022-08-07T22:59:16.280Z,12.25
2022-08-07T23:01:10.128Z,11.38
2022-08-07T23:02:58.573Z,11.93
2022-08-07T23:04:58.302Z,12.07
2022-08-07T23:06:58.651Z,11.10
2022-08-07T23:08:58.678Z,11.45
2022-08-07T23:11:00.918Z,11.05
2022-08-07T23:12:56.548Z,11.13
2022-08-07T23:14:39.313Z,11.18
2022-08-07T23:16:44.589Z,12.38
2022-08-07T23:18:32.329Z,10.82
2022-08-07T23:20:51.420Z,10.70
2022-08-07T23:22:30.068Z,11.02
2022-08-07T23:24:27.830Z,11.45
2022-08-07T23:26:15.559Z,10.68
2022-08-07T23:28:20.538Z,11.50
2022-08-07T23:30:39.407Z,10.63
2022-08-07T23:34:20.952Z,11.88
2022-08-07T23:34:39.986Z,11.38
2022-08-07T23:36:29.209Z,11.05
2022-08-07T23:38:36.580Z,11.27
2022-08-07T23:40:30.201Z,10.60
2022-08-07T23:42:23.476Z,11.15
2022-08-07T23:44:24.804Z,11.52
2022-08-07T23:46:23.985Z,11.70
2022-08-07T23:48:25.653Z,11.10
2022-08-07T23:50:11.865Z,11.40
2022-08-07T23:53:17.462Z,11.43
2022-08-07T23:53:57.501Z,11.35
2022-08-07T23:55:47.068Z,11.95
2022-08-07T23:57:32.336Z,11.15
